Bedford Park, Illinois
Current Conditions -  °F | °C
As of 1:53 PM on Thursday 27 Nov 2014 (Local Time) from KMDW Reporting Station
Overcast Overcast  
Wind Chill: 14°   Ceiling: 2600
Heat Index: 26°   Visibility: 10mi
Dew Point: 15°   Wind: 14mph
Humidity: 63%   Direction: 300°WNW
Pressure: 30.35"   Gusts: NA
Location:  41.76°N, 87.8°W
Report Text: KMDW 271953Z 30012KT 10SM OVC026 M03/M09 A3035 RMK AO2 SLP291 T10331094
Loading
Personal Weather Stations






























Interactive Weather Map New forecast layout! Learn more

10-Day Weather Forecast

Advertisements
Track Severe Weather on mobile